Comfort, TX (78013)

5:43 PM CST on December 17, 2014 (GMT -0600)
Rusty Bend Ranch | Change Station
CLOSE
Current Station
Personal Weather Station
Location: Comfort, TX
Elevation: 1432 ft
Nearby Weather Stations

Elev 1432 ft 29.98 °N, 98.83 °W | Updated 7 minutes ago

Overcast
Overcast
49.3 °F
Feels Like 49 °F
N
0.0
Wind Variable Wind from ESE
Gusts 0.0 mph

Today
High -- | Low -- °F
--% Chance of Precip.
Yesterday
High -- | Low -- °F
Precip. -- in
7:24 AM 5:38 PM
Waning Crescent, 19% visible
Pressure 30.05 in
Visibility 3.0 miles
Clouds Overcast 300 ft
Windchill 49 °F
Dew Point 49 °F
Humidity 97%
Rainfall 0.20 in
Snow Depth Not available.
UV 0 out of 12
Pollen 7.40 out of 12
Air Quality Not available.
Flu Activity Not available.
METAR KERV 172335Z AUTO 00000KT 3SM BR OVC003 11/10 A3005 RMK AO2 P0001 T01060100

More Conditions Fewer Conditions

Pressure 30.05 in
Visibility 3.0 miles
Clouds Overcast 300 ft
Windchill 49 °F
Dew Point 49 °F
Humidity 97%
Rainfall 0.20 in
Snow Depth Not available.
UV 0 out of 12
Pollen 7.40 out of 12
Air Quality Not available.
Flu Activity Not available.
METAR KERV 172335Z AUTO 00000KT 3SM BR OVC003 11/10 A3005 RMK AO2 P0001 T01060100

More Conditions Fewer Conditions

Nowcast | as of 5:17 PM CST on December 17, 2014

Through 7 PM...patchy light drizzle and rain will move northeast across south central Texas. Spotty rainfall amounts of a few hundredths of an inch are possible.

×

10-Day Weather Forecast

Almanac

Astronomy

Dec. 17, 2014 Rise Set
Actual Time
Civil Twilight
Nautical Twilight
Astronomical Twilight
Moon
Length of Visible Light
Length of Day
Tomorrow will be .
, % of the Moon is Illuminated

Today's Extremes

State Highs State Lows

Community

WunderPhotos

Upload Photos

1,778,825 photos uploaded!

WunderBlogs® & News

Nearby

Air Quality

  Air Quality AQ Index Pollutant
Not available.

Snow Depth

Station Depth Elevation

Earthquake Activity

City Distance Mag. Time & Date
Minimum magnitude displayed is 2.5.

Coastal Water Temperatures

Place Temperature

Nearby Weather Stations